sensor_id;sensor_type;location;lat;lon;timestamp;P1;durP1;ratioP1;P2;durP2;ratioP2
14748;SDS011;7466;53.574;9.976;2024-01-15T00:02:11;11.33;;;2.67;;
14748;SDS011;7466;53.574;9.976;2024-01-15T00:04:38;14.10;;;2.60;;
14748;SDS011;7466;53.574;9.976;2024-01-15T00:07:04;9.87;;;2.80;;
14748;SDS011;7466;53.574;9.976;2024-01-15T00:09:31;12.73;;;2.47;;
14748;SDS011;7466;53.574;9.976;2024-01-15T00:12:00;19.43;;;2.60;;
14748;SDS011;7466;53.574;9.976;2024-01-15T00:14:27;3.67;;;2.00;;
14748;SDS011;7466;53.574;9.976;2024-01-15T00:16:54;11.10;;;2.80;;
14748;SDS011;7466;53.574;9.976;2024-01-15T00:19:21;8.17;;;2.23;;
14748;SDS011;7466;53.574;9.976;2024-01-15T00:21:48;10.43;;;2.27;;
14748;SDS011;7466;53.574;9.976;2024-01-15T00:24:15;17.23;;;2.90;;
14748;SDS011;7466;53.574;9.976;2024-01-15T00:26:42;11.47;;;2.57;;
14748;SDS011;7466;53.574;9.976;2024-01-15T00:29:10;10.20;;;2.00;;
14748;SDS011;7466;53.574;9.976;2024-01-15T00:31:37;10.73;;;2.67;;
14748;SDS011;7466;53.574;9.976;2024-01-15T00:34:05;6.97;;;2.13;;
14748;SDS011;7466;53.574;9.976;2024-01-15T00:36:35;11.10;;;2.77;;
14748;SDS011;7466;53.574;9.976;2024-01-15T00:39:02;11.53;;;2.73;;
14748;SDS011;7466;53.574;9.976;2024-01-15T00:41:30;14.03;;;2.77;;
14748;SDS011;7466;53.574;9.976;2024-01-15T00:43:58;9.20;;;2.37;;
14748;SDS011;7466;53.574;9.976;2024-01-15T00:46:27;9.97;;;2.93;;
14748;SDS011;7466;53.574;9.976;2024-01-15T00:48:54;14.10;;;2.60;;
14748;SDS011;7466;53.574;9.976;2024-01-15T00:51:35;15.13;;;3.10;;
14748;SDS011;7466;53.574;9.976;2024-01-15T00:54:02;9.40;;;2.77;;
14748;SDS011;7466;53.574;9.976;2024-01-15T00:56:29;14.53;;;2.57;;
14748;SDS011;7466;53.574;9.976;2024-01-15T00:58:59;12.47;;;3.47;;
14748;SDS011;7466;53.574;9.976;2024-01-15T01:01:28;8.93;;;2.50;;
14748;SDS011;7466;53.574;9.976;2024-01-15T01:03:55;16.27;;;3.27;;
14748;SDS011;7466;53.574;9.976;2024-01-15T01:06:30;12.07;;;2.80;;
14748;SDS011;7466;53.574;9.976;2024-01-15T01:08:57;16.53;;;3.17;;
14748;SDS011;7466;53.574;9.976;2024-01-15T01:11:23;14.77;;;2.93;;
14748;SDS011;7466;53.574;9.976;2024-01-15T01:13:51;16.70;;;2.90;;
14748;SDS011;7466;53.574;9.976;2024-01-15T01:16:19;9.07;;;2.27;;
14748;SDS011;7466;53.574;9.976;2024-01-15T01:18:50;11.03;;;2.67;;
14748;SDS011;7466;53.574;9.976;2024-01-15T01:21:17;9.67;;;2.10;;
14748;SDS011;7466;53.574;9.976;2024-01-15T01:23:44;14.27;;;2.60;;
14748;SDS011;7466;53.574;9.976;2024-01-15T01:26:12;10.53;;;2.57;;
14748;SDS011;7466;53.574;9.976;2024-01-15T01:28:42;9.40;;;2.70;;
14748;SDS011;7466;53.574;9.976;2024-01-15T01:31:08;15.00;;;2.40;;
14748;SDS011;7466;53.574;9.976;2024-01-15T01:33:35;12.40;;;3.00;;
14748;SDS011;7466;53.574;9.976;2024-01-15T01:36:08;8.73;;;2.67;;
14748;SDS011;7466;53.574;9.976;2024-01-15T01:38:35;11.80;;;2.93;;
14748;SDS011;7466;53.574;9.976;2024-01-15T01:41:04;18.93;;;2.67;;
14748;SDS011;7466;53.574;9.976;2024-01-15T01:43:36;13.73;;;2.73;;
14748;SDS011;7466;53.574;9.976;2024-01-15T01:46:02;10.47;;;2.77;;
14748;SDS011;7466;53.574;9.976;2024-01-15T01:48:29;8.53;;;1.97;;
14748;SDS011;7466;53.574;9.976;2024-01-15T01:50:58;15.43;;;3.10;;
14748;SDS011;7466;53.574;9.976;2024-01-15T01:53:36;8.17;;;2.60;;
14748;SDS011;7466;53.574;9.976;2024-01-15T01:56:22;12.00;;;2.20;;
14748;SDS011;7466;53.574;9.976;2024-01-15T01:58:50;10.20;;;3.23;;
14748;SDS011;7466;53.574;9.976;2024-01-15T02:01:17;11.33;;;2.90;;
14748;SDS011;7466;53.574;9.976;2024-01-15T02:03:45;12.73;;;2.77;;
14748;SDS011;7466;53.574;9.976;2024-01-15T02:06:12;9.43;;;2.53;;
14748;SDS011;7466;53.574;9.976;2024-01-15T02:08:41;10.97;;;2.80;;
14748;SDS011;7466;53.574;9.976;2024-01-15T02:11:10;10.73;;;2.90;;
14748;SDS011;7466;53.574;9.976;2024-01-15T02:13:38;10.37;;;3.20;;
14748;SDS011;7466;53.574;9.976;2024-01-15T02:16:08;8.07;;;3.00;;
14748;SDS011;7466;53.574;9.976;2024-01-15T02:18:40;11.87;;;2.67;;
14748;SDS011;7466;53.574;9.976;2024-01-15T02:21:07;11.97;;;2.77;;
14748;SDS011;7466;53.574;9.976;2024-01-15T02:23:38;11.77;;;2.60;;
14748;SDS011;7466;53.574;9.976;2024-01-15T02:26:05;6.97;;;2.27;;
14748;SDS011;7466;53.574;9.976;2024-01-15T02:28:32;5.40;;;2.00;;
14748;SDS011;7466;53.574;9.976;2024-01-15T02:31:00;8.60;;;2.60;;
14748;SDS011;7466;53.574;9.976;2024-01-15T02:33:41;9.77;;;2.50;;
14748;SDS011;7466;53.574;9.976;2024-01-15T02:36:09;12.87;;;2.97;;
14748;SDS011;7466;53.574;9.976;2024-01-15T02:38:38;11.13;;;2.57;;
14748;SDS011;7466;53.574;9.976;2024-01-15T02:41:05;9.80;;;2.90;;
14748;SDS011;7466;53.574;9.976;2024-01-15T02:43:32;9.63;;;2.90;;
14748;SDS011;7466;53.574;9.976;2024-01-15T02:45:58;10.23;;;2.43;;
14748;SDS011;7466;53.574;9.976;2024-01-15T02:48:27;6.10;;;2.70;;
14748;SDS011;7466;53.574;9.976;2024-01-15T02:50:53;8.27;;;2.27;;
14748;SDS011;7466;53.574;9.976;2024-01-15T02:53:21;14.50;;;2.20;;
14748;SDS011;7466;53.574;9.976;2024-01-15T02:55:49;9.03;;;2.47;;
14748;SDS011;7466;53.574;9.976;2024-01-15T02:58:16;9.93;;;2.67;;
14748;SDS011;7466;53.574;9.976;2024-01-15T03:00:44;12.80;;;3.03;;
14748;SDS011;7466;53.574;9.976;2024-01-15T03:03:13;11.07;;;2.40;;
14748;SDS011;7466;53.574;9.976;2024-01-15T03:05:55;10.27;;;2.93;;
14748;SDS011;7466;53.574;9.976;2024-01-15T03:08:21;14.13;;;3.03;;
14748;SDS011;7466;53.574;9.976;2024-01-15T03:13:35;8.77;;;2.37;;
14748;SDS011;7466;53.574;9.976;2024-01-15T03:16:02;12.93;;;2.50;;
14748;SDS011;7466;53.574;9.976;2024-01-15T03:18:31;11.23;;;2.63;;
14748;SDS011;7466;53.574;9.976;2024-01-15T03:20:58;10.73;;;2.53;;
14748;SDS011;7466;53.574;9.976;2024-01-15T03:23:26;13.73;;;3.70;;
14748;SDS011;7466;53.574;9.976;2024-01-15T03:25:53;11.80;;;3.43;;
14748;SDS011;7466;53.574;9.976;2024-01-15T03:28:23;12.83;;;2.83;;
14748;SDS011;7466;53.574;9.976;2024-01-15T03:30:50;14.70;;;2.50;;
14748;SDS011;7466;53.574;9.976;2024-01-15T03:33:17;12.43;;;3.27;;
14748;SDS011;7466;53.574;9.976;2024-01-15T03:35:44;12.57;;;2.83;;
14748;SDS011;7466;53.574;9.976;2024-01-15T03:38:11;15.37;;;2.90;;
14748;SDS011;7466;53.574;9.976;2024-01-15T03:40:37;13.93;;;3.30;;
14748;SDS011;7466;53.574;9.976;2024-01-15T03:43:04;11.37;;;3.00;;
14748;SDS011;7466;53.574;9.976;2024-01-15T03:45:34;19.97;;;3.63;;
14748;SDS011;7466;53.574;9.976;2024-01-15T03:48:01;16.40;;;3.63;;
14748;SDS011;7466;53.574;9.976;2024-01-15T03:50:33;9.20;;;2.90;;
14748;SDS011;7466;53.574;9.976;2024-01-15T03:52:59;11.50;;;2.73;;
14748;SDS011;7466;53.574;9.976;2024-01-15T03:55:26;19.77;;;3.50;;
14748;SDS011;7466;53.574;9.976;2024-01-15T03:57:53;14.73;;;3.20;;
14748;SDS011;7466;53.574;9.976;2024-01-15T04:00:20;13.83;;;3.87;;
14748;SDS011;7466;53.574;9.976;2024-01-15T04:02:48;18.90;;;3.93;;
14748;SDS011;7466;53.574;9.976;2024-01-15T04:05:17;18.57;;;3.63;;
14748;SDS011;7466;53.574;9.976;2024-01-15T04:07:44;16.90;;;3.27;;
14748;SDS011;7466;53.574;9.976;2024-01-15T04:10:11;18.60;;;3.30;;
14748;SDS011;7466;53.574;9.976;2024-01-15T04:12:37;16.20;;;2.93;;
14748;SDS011;7466;53.574;9.976;2024-01-15T04:15:06;20.43;;;3.30;;
14748;SDS011;7466;53.574;9.976;2024-01-15T04:17:33;17.37;;;3.17;;
14748;SDS011;7466;53.574;9.976;2024-01-15T04:20:05;21.47;;;3.13;;
14748;SDS011;7466;53.574;9.976;2024-01-15T04:22:33;19.27;;;3.13;;
14748;SDS011;7466;53.574;9.976;2024-01-15T04:25:01;16.93;;;3.30;;
14748;SDS011;7466;53.574;9.976;2024-01-15T04:27:28;19.63;;;3.60;;
14748;SDS011;7466;53.574;9.976;2024-01-15T04:29:56;18.23;;;3.03;;
14748;SDS011;7466;53.574;9.976;2024-01-15T04:32:29;17.17;;;3.43;;
14748;SDS011;7466;53.574;9.976;2024-01-15T04:34:56;19.77;;;3.97;;
14748;SDS011;7466;53.574;9.976;2024-01-15T04:37:24;17.53;;;3.10;;
14748;SDS011;7466;53.574;9.976;2024-01-15T04:39:51;14.47;;;3.03;;
14748;SDS011;7466;53.574;9.976;2024-01-15T04:42:20;18.43;;;3.57;;
14748;SDS011;7466;53.574;9.976;2024-01-15T04:44:46;19.07;;;3.20;;
14748;SDS011;7466;53.574;9.976;2024-01-15T04:47:13;19.73;;;3.90;;
14748;SDS011;7466;53.574;9.976;2024-01-15T04:49:40;20.50;;;3.80;;
14748;SDS011;7466;53.574;9.976;2024-01-15T04:52:07;27.07;;;4.03;;
14748;SDS011;7466;53.574;9.976;2024-01-15T04:54:36;22.40;;;3.50;;
14748;SDS011;7466;53.574;9.976;2024-01-15T04:57:03;15.77;;;3.60;;
14748;SDS011;7466;53.574;9.976;2024-01-15T04:59:30;25.40;;;3.70;;
14748;SDS011;7466;53.574;9.976;2024-01-15T05:01:56;17.37;;;3.20;;
14748;SDS011;7466;53.574;9.976;2024-01-15T05:04:23;21.43;;;4.63;;
14748;SDS011;7466;53.574;9.976;2024-01-15T05:06:50;20.43;;;3.57;;
14748;SDS011;7466;53.574;9.976;2024-01-15T05:09:17;23.77;;;3.57;;
14748;SDS011;7466;53.574;9.976;2024-01-15T05:11:46;14.43;;;3.13;;
14748;SDS011;7466;53.574;9.976;2024-01-15T05:14:15;17.30;;;3.27;;
14748;SDS011;7466;53.574;9.976;2024-01-15T05:16:46;16.57;;;3.27;;
14748;SDS011;7466;53.574;9.976;2024-01-15T05:19:15;15.63;;;3.10;;
14748;SDS011;7466;53.574;9.976;2024-01-15T05:21:45;27.60;;;3.50;;
14748;SDS011;7466;53.574;9.976;2024-01-15T05:24:14;21.80;;;3.93;;
14748;SDS011;7466;53.574;9.976;2024-01-15T05:26:42;17.43;;;3.87;;
14748;SDS011;7466;53.574;9.976;2024-01-15T05:29:10;22.20;;;3.63;;
14748;SDS011;7466;53.574;9.976;2024-01-15T05:31:37;19.10;;;3.77;;
14748;SDS011;7466;53.574;9.976;2024-01-15T05:34:04;14.77;;;3.83;;
14748;SDS011;7466;53.574;9.976;2024-01-15T05:36:31;13.73;;;2.73;;
14748;SDS011;7466;53.574;9.976;2024-01-15T05:38:57;22.60;;;4.03;;
14748;SDS011;7466;53.574;9.976;2024-01-15T05:41:33;19.67;;;3.73;;
14748;SDS011;7466;53.574;9.976;2024-01-15T05:44:00;26.50;;;3.60;;
14748;SDS011;7466;53.574;9.976;2024-01-15T05:46:28;14.83;;;3.20;;
14748;SDS011;7466;53.574;9.976;2024-01-15T05:48:55;13.80;;;3.03;;
14748;SDS011;7466;53.574;9.976;2024-01-15T05:51:29;20.43;;;3.07;;
14748;SDS011;7466;53.574;9.976;2024-01-15T05:53:56;17.43;;;3.57;;
14748;SDS011;7466;53.574;9.976;2024-01-15T05:56:23;19.87;;;3.27;;
14748;SDS011;7466;53.574;9.976;2024-01-15T05:58:50;22.03;;;4.03;;
14748;SDS011;7466;53.574;9.976;2024-01-15T06:01:17;18.50;;;3.80;;
14748;SDS011;7466;53.574;9.976;2024-01-15T06:03:46;19.70;;;3.90;;
14748;SDS011;7466;53.574;9.976;2024-01-15T06:06:12;19.17;;;3.27;;
14748;SDS011;7466;53.574;9.976;2024-01-15T06:08:40;16.63;;;3.37;;
14748;SDS011;7466;53.574;9.976;2024-01-15T06:11:07;15.97;;;3.57;;
14748;SDS011;7466;53.574;9.976;2024-01-15T06:13:33;21.90;;;4.00;;
14748;SDS011;7466;53.574;9.976;2024-01-15T06:16:00;17.20;;;3.80;;
14748;SDS011;7466;53.574;9.976;2024-01-15T06:18:27;22.47;;;3.70;;
14748;SDS011;7466;53.574;9.976;2024-01-15T06:20:55;20.87;;;4.00;;
14748;SDS011;7466;53.574;9.976;2024-01-15T06:23:22;25.23;;;4.17;;
14748;SDS011;7466;53.574;9.976;2024-01-15T06:25:48;15.00;;;3.60;;
14748;SDS011;7466;53.574;9.976;2024-01-15T06:28:15;14.50;;;3.43;;
14748;SDS011;7466;53.574;9.976;2024-01-15T06:30:42;16.97;;;3.07;;
14748;SDS011;7466;53.574;9.976;2024-01-15T06:33:09;18.57;;;3.53;;
14748;SDS011;7466;53.574;9.976;2024-01-15T06:35:35;20.37;;;3.50;;
14748;SDS011;7466;53.574;9.976;2024-01-15T06:38:04;22.47;;;4.00;;
14748;SDS011;7466;53.574;9.976;2024-01-15T06:40:30;23.47;;;3.67;;
14748;SDS011;7466;53.574;9.976;2024-01-15T06:42:57;14.43;;;3.30;;
14748;SDS011;7466;53.574;9.976;2024-01-15T06:45:24;19.13;;;3.17;;
14748;SDS011;7466;53.574;9.976;2024-01-15T06:47:51;19.13;;;3.83;;
14748;SDS011;7466;53.574;9.976;2024-01-15T06:50:18;25.00;;;4.10;;
14748;SDS011;7466;53.574;9.976;2024-01-15T06:52:45;17.50;;;3.60;;
14748;SDS011;7466;53.574;9.976;2024-01-15T06:55:19;15.77;;;3.40;;
14748;SDS011;7466;53.574;9.976;2024-01-15T06:57:47;12.03;;;2.47;;
14748;SDS011;7466;53.574;9.976;2024-01-15T07:00:14;13.57;;;3.30;;
14748;SDS011;7466;53.574;9.976;2024-01-15T07:02:42;17.60;;;3.47;;
14748;SDS011;7466;53.574;9.976;2024-01-15T07:05:11;12.97;;;3.77;;
14748;SDS011;7466;53.574;9.976;2024-01-15T07:07:41;14.83;;;3.50;;
14748;SDS011;7466;53.574;9.976;2024-01-15T07:10:08;11.47;;;3.40;;
14748;SDS011;7466;53.574;9.976;2024-01-15T07:12:36;17.07;;;2.77;;
14748;SDS011;7466;53.574;9.976;2024-01-15T07:15:03;15.70;;;3.30;;
14748;SDS011;7466;53.574;9.976;2024-01-15T07:17:33;25.33;;;3.03;;
14748;SDS011;7466;53.574;9.976;2024-01-15T07:20:00;14.57;;;3.13;;
14748;SDS011;7466;53.574;9.976;2024-01-15T07:22:32;10.90;;;2.87;;
14748;SDS011;7466;53.574;9.976;2024-01-15T07:25:11;13.63;;;2.67;;
14748;SDS011;7466;53.574;9.976;2024-01-15T07:27:51;19.20;;;3.23;;
14748;SDS011;7466;53.574;9.976;2024-01-15T07:30:27;16.17;;;2.97;;
14748;SDS011;7466;53.574;9.976;2024-01-15T07:32:53;14.13;;;2.40;;
14748;SDS011;7466;53.574;9.976;2024-01-15T07:35:20;14.10;;;2.83;;
14748;SDS011;7466;53.574;9.976;2024-01-15T07:37:49;8.60;;;2.53;;
14748;SDS011;7466;53.574;9.976;2024-01-15T07:40:31;11.07;;;2.30;;
14748;SDS011;7466;53.574;9.976;2024-01-15T07:43:00;13.63;;;2.97;;
14748;SDS011;7466;53.574;9.976;2024-01-15T07:45:30;11.60;;;2.30;;
14748;SDS011;7466;53.574;9.976;2024-01-15T07:47:57;7.63;;;2.10;;
14748;SDS011;7466;53.574;9.976;2024-01-15T07:50:24;15.07;;;2.93;;
14748;SDS011;7466;53.574;9.976;2024-01-15T07:52:51;10.70;;;2.30;;
14748;SDS011;7466;53.574;9.976;2024-01-15T07:55:22;10.30;;;2.30;;
14748;SDS011;7466;53.574;9.976;2024-01-15T07:57:57;14.87;;;2.30;;
14748;SDS011;7466;53.574;9.976;2024-01-15T08:00:29;11.00;;;2.30;;
14748;SDS011;7466;53.574;9.976;2024-01-15T08:02:56;11.07;;;2.63;;
14748;SDS011;7466;53.574;9.976;2024-01-15T08:05:23;14.53;;;2.90;;
14748;SDS011;7466;53.574;9.976;2024-01-15T08:07:50;10.80;;;2.40;;
14748;SDS011;7466;53.574;9.976;2024-01-15T08:10:17;10.60;;;2.43;;
14748;SDS011;7466;53.574;9.976;2024-01-15T08:12:44;12.37;;;2.33;;
14748;SDS011;7466;53.574;9.976;2024-01-15T08:15:13;8.13;;;2.40;;
14748;SDS011;7466;53.574;9.976;2024-01-15T08:17:40;9.23;;;2.47;;
14748;SDS011;7466;53.574;9.976;2024-01-15T08:20:07;14.83;;;2.30;;
14748;SDS011;7466;53.574;9.976;2024-01-15T08:22:35;11.73;;;2.40;;
14748;SDS011;7466;53.574;9.976;2024-01-15T08:25:02;9.77;;;2.33;;
14748;SDS011;7466;53.574;9.976;2024-01-15T08:27:30;16.10;;;2.70;;
14748;SDS011;7466;53.574;9.976;2024-01-15T08:29:56;11.40;;;2.67;;
14748;SDS011;7466;53.574;9.976;2024-01-15T08:32:23;9.90;;;2.60;;
14748;SDS011;7466;53.574;9.976;2024-01-15T08:34:51;7.70;;;3.07;;
14748;SDS011;7466;53.574;9.976;2024-01-15T08:37:18;9.23;;;2.27;;
14748;SDS011;7466;53.574;9.976;2024-01-15T08:39:45;12.67;;;2.47;;
14748;SDS011;7466;53.574;9.976;2024-01-15T08:42:11;8.67;;;2.37;;
14748;SDS011;7466;53.574;9.976;2024-01-15T08:44:38;10.17;;;1.93;;
14748;SDS011;7466;53.574;9.976;2024-01-15T08:47:06;8.53;;;2.37;;
14748;SDS011;7466;53.574;9.976;2024-01-15T08:49:34;6.50;;;2.17;;
14748;SDS011;7466;53.574;9.976;2024-01-15T08:52:03;7.07;;;2.00;;
14748;SDS011;7466;53.574;9.976;2024-01-15T08:54:29;12.40;;;2.50;;
14748;SDS011;7466;53.574;9.976;2024-01-15T08:56:56;10.97;;;2.23;;
14748;SDS011;7466;53.574;9.976;2024-01-15T08:59:23;6.03;;;1.90;;
14748;SDS011;7466;53.574;9.976;2024-01-15T09:01:51;5.70;;;2.10;;
14748;SDS011;7466;53.574;9.976;2024-01-15T09:04:17;5.67;;;2.07;;
14748;SDS011;7466;53.574;9.976;2024-01-15T09:06:44;7.23;;;2.13;;
14748;SDS011;7466;53.574;9.976;2024-01-15T09:09:13;9.57;;;2.67;;
14748;SDS011;7466;53.574;9.976;2024-01-15T09:11:42;8.17;;;2.73;;
14748;SDS011;7466;53.574;9.976;2024-01-15T09:14:09;5.10;;;2.20;;
14748;SDS011;7466;53.574;9.976;2024-01-15T09:16:35;9.70;;;3.27;;
14748;SDS011;7466;53.574;9.976;2024-01-15T09:19:03;9.83;;;2.73;;
14748;SDS011;7466;53.574;9.976;2024-01-15T09:21:30;8.30;;;2.67;;
14748;SDS011;7466;53.574;9.976;2024-01-15T09:23:57;11.73;;;2.90;;
14748;SDS011;7466;53.574;9.976;2024-01-15T09:26:26;10.10;;;2.67;;
14748;SDS011;7466;53.574;9.976;2024-01-15T09:28:53;12.07;;;2.87;;
14748;SDS011;7466;53.574;9.976;2024-01-15T09:31:21;7.53;;;2.47;;
14748;SDS011;7466;53.574;9.976;2024-01-15T09:33:48;12.77;;;3.60;;
14748;SDS011;7466;53.574;9.976;2024-01-15T09:36:17;9.37;;;2.50;;
14748;SDS011;7466;53.574;9.976;2024-01-15T09:38:47;12.63;;;2.73;;
14748;SDS011;7466;53.574;9.976;2024-01-15T09:41:14;17.10;;;3.13;;
14748;SDS011;7466;53.574;9.976;2024-01-15T09:43:42;15.03;;;2.63;;
14748;SDS011;7466;53.574;9.976;2024-01-15T09:46:10;15.23;;;3.30;;
14748;SDS011;7466;53.574;9.976;2024-01-15T09:48:38;11.43;;;3.10;;
14748;SDS011;7466;53.574;9.976;2024-01-15T09:51:05;7.17;;;2.00;;
14748;SDS011;7466;53.574;9.976;2024-01-15T09:53:33;7.67;;;2.00;;
14748;SDS011;7466;53.574;9.976;2024-01-15T09:56:02;10.60;;;2.50;;
14748;SDS011;7466;53.574;9.976;2024-01-15T09:58:30;8.00;;;2.10;;
14748;SDS011;7466;53.574;9.976;2024-01-15T10:00:59;7.17;;;2.00;;
14748;SDS011;7466;53.574;9.976;2024-01-15T10:03:28;8.07;;;2.13;;
14748;SDS011;7466;53.574;9.976;2024-01-15T10:05:55;11.67;;;2.20;;
14748;SDS011;7466;53.574;9.976;2024-01-15T10:08:24;8.57;;;2.30;;
14748;SDS011;7466;53.574;9.976;2024-01-15T10:10:52;6.47;;;1.90;;
14748;SDS011;7466;53.574;9.976;2024-01-15T10:13:18;9.10;;;1.87;;
14748;SDS011;7466;53.574;9.976;2024-01-15T10:15:46;6.83;;;1.73;;
14748;SDS011;7466;53.574;9.976;2024-01-15T10:18:15;5.50;;;1.70;;
14748;SDS011;7466;53.574;9.976;2024-01-15T10:20:41;5.17;;;1.67;;
14748;SDS011;7466;53.574;9.976;2024-01-15T10:23:08;4.47;;;1.70;;
14748;SDS011;7466;53.574;9.976;2024-01-15T10:25:35;4.57;;;1.20;;
14748;SDS011;7466;53.574;9.976;2024-01-15T10:28:03;4.47;;;1.80;;
14748;SDS011;7466;53.574;9.976;2024-01-15T10:30:30;4.13;;;1.97;;
14748;SDS011;7466;53.574;9.976;2024-01-15T10:32:58;2.70;;;1.63;;
14748;SDS011;7466;53.574;9.976;2024-01-15T10:35:28;5.10;;;2.27;;
14748;SDS011;7466;53.574;9.976;2024-01-15T10:37:55;3.17;;;2.07;;
14748;SDS011;7466;53.574;9.976;2024-01-15T10:40:23;3.60;;;1.93;;
14748;SDS011;7466;53.574;9.976;2024-01-15T10:42:50;4.40;;;2.23;;
14748;SDS011;7466;53.574;9.976;2024-01-15T10:45:17;6.55;;;2.58;;
14748;SDS011;7466;53.574;9.976;2024-01-15T10:47:44;3.13;;;2.40;;
14748;SDS011;7466;53.574;9.976;2024-01-15T10:50:11;7.47;;;2.77;;
14748;SDS011;7466;53.574;9.976;2024-01-15T10:52:40;3.83;;;3.13;;
14748;SDS011;7466;53.574;9.976;2024-01-15T10:55:08;3.07;;;2.33;;
14748;SDS011;7466;53.574;9.976;2024-01-15T10:57:35;3.13;;;2.17;;
14748;SDS011;7466;53.574;9.976;2024-01-15T11:00:03;4.30;;;2.13;;
14748;SDS011;7466;53.574;9.976;2024-01-15T11:02:31;4.77;;;2.43;;
14748;SDS011;7466;53.574;9.976;2024-01-15T11:05:00;3.80;;;2.17;;
14748;SDS011;7466;53.574;9.976;2024-01-15T11:07:27;2.67;;;2.30;;
14748;SDS011;7466;53.574;9.976;2024-01-15T11:09:58;2.50;;;2.30;;
14748;SDS011;7466;53.574;9.976;2024-01-15T11:12:24;5.27;;;2.80;;
14748;SDS011;7466;53.574;9.976;2024-01-15T11:14:51;3.07;;;2.20;;
14748;SDS011;7466;53.574;9.976;2024-01-15T11:17:19;5.30;;;2.20;;
14748;SDS011;7466;53.574;9.976;2024-01-15T11:19:47;4.40;;;2.30;;
14748;SDS011;7466;53.574;9.976;2024-01-15T11:25:17;3.53;;;2.50;;
14748;SDS011;7466;53.574;9.976;2024-01-15T11:27:49;3.87;;;3.10;;
14748;SDS011;7466;53.574;9.976;2024-01-15T11:30:24;4.43;;;2.90;;
14748;SDS011;7466;53.574;9.976;2024-01-15T11:32:51;3.47;;;2.77;;
14748;SDS011;7466;53.574;9.976;2024-01-15T11:35:18;5.57;;;3.00;;
14748;SDS011;7466;53.574;9.976;2024-01-15T11:37:57;5.23;;;2.80;;
14748;SDS011;7466;53.574;9.976;2024-01-15T11:40:37;5.13;;;2.70;;
14748;SDS011;7466;53.574;9.976;2024-01-15T11:43:07;4.57;;;2.20;;
14748;SDS011;7466;53.574;9.976;2024-01-15T11:45:35;4.17;;;2.03;;
14748;SDS011;7466;53.574;9.976;2024-01-15T11:48:09;6.43;;;2.00;;
14748;SDS011;7466;53.574;9.976;2024-01-15T11:50:41;5.40;;;2.20;;
14748;SDS011;7466;53.574;9.976;2024-01-15T11:56:01;5.37;;;1.87;;
14748;SDS011;7466;53.574;9.976;2024-01-15T11:58:29;2.93;;;2.00;;
14748;SDS011;7466;53.574;9.976;2024-01-15T12:01:02;5.20;;;2.07;;
14748;SDS011;7466;53.574;9.976;2024-01-15T12:03:31;3.63;;;2.00;;
14748;SDS011;7466;53.574;9.976;2024-01-15T12:05:59;5.33;;;2.00;;
14748;SDS011;7466;53.574;9.976;2024-01-15T12:08:26;3.17;;;1.77;;
14748;SDS011;7466;53.574;9.976;2024-01-15T12:10:53;4.57;;;1.97;;
14748;SDS011;7466;53.574;9.976;2024-01-15T12:13:21;6.10;;;1.90;;
14748;SDS011;7466;53.574;9.976;2024-01-15T12:15:48;3.70;;;2.00;;
14748;SDS011;7466;53.574;9.976;2024-01-15T12:18:16;3.07;;;2.00;;
14748;SDS011;7466;53.574;9.976;2024-01-15T12:20:44;3.53;;;2.20;;
14748;SDS011;7466;53.574;9.976;2024-01-15T12:23:16;3.23;;;2.23;;
14748;SDS011;7466;53.574;9.976;2024-01-15T12:25:43;2.10;;;1.90;;
14748;SDS011;7466;53.574;9.976;2024-01-15T12:28:10;4.60;;;2.50;;
14748;SDS011;7466;53.574;9.976;2024-01-15T12:30:38;3.97;;;2.43;;
14748;SDS011;7466;53.574;9.976;2024-01-15T12:33:10;3.07;;;2.27;;
14748;SDS011;7466;53.574;9.976;2024-01-15T12:35:39;5.17;;;2.70;;
14748;SDS011;7466;53.574;9.976;2024-01-15T12:38:07;4.70;;;2.30;;
14748;SDS011;7466;53.574;9.976;2024-01-15T12:40:36;3.27;;;2.00;;
14748;SDS011;7466;53.574;9.976;2024-01-15T12:43:03;6.30;;;1.90;;
14748;SDS011;7466;53.574;9.976;2024-01-15T12:45:32;2.27;;;1.83;;
14748;SDS011;7466;53.574;9.976;2024-01-15T12:48:04;2.70;;;1.83;;
14748;SDS011;7466;53.574;9.976;2024-01-15T12:50:33;3.23;;;1.83;;
14748;SDS011;7466;53.574;9.976;2024-01-15T12:53:00;2.57;;;1.83;;
14748;SDS011;7466;53.574;9.976;2024-01-15T12:55:27;2.37;;;1.73;;
14748;SDS011;7466;53.574;9.976;2024-01-15T12:57:54;1.60;;;1.50;;
14748;SDS011;7466;53.574;9.976;2024-01-15T13:00:21;1.53;;;1.43;;
14748;SDS011;7466;53.574;9.976;2024-01-15T13:02:48;2.27;;;1.80;;
14748;SDS011;7466;53.574;9.976;2024-01-15T13:05:17;2.33;;;2.10;;
14748;SDS011;7466;53.574;9.976;2024-01-15T13:07:45;2.30;;;1.90;;
14748;SDS011;7466;53.574;9.976;2024-01-15T13:10:12;1.93;;;1.80;;
14748;SDS011;7466;53.574;9.976;2024-01-15T13:12:39;3.30;;;1.70;;
14748;SDS011;7466;53.574;9.976;2024-01-15T13:15:07;2.27;;;2.00;;
14748;SDS011;7466;53.574;9.976;2024-01-15T13:17:37;3.13;;;2.50;;
14748;SDS011;7466;53.574;9.976;2024-01-15T13:20:05;2.93;;;1.90;;
14748;SDS011;7466;53.574;9.976;2024-01-15T13:22:34;3.43;;;2.00;;
14748;SDS011;7466;53.574;9.976;2024-01-15T13:25:04;4.93;;;2.37;;
14748;SDS011;7466;53.574;9.976;2024-01-15T13:27:32;2.77;;;2.17;;
14748;SDS011;7466;53.574;9.976;2024-01-15T13:30:03;3.40;;;2.03;;
14748;SDS011;7466;53.574;9.976;2024-01-15T13:32:37;2.37;;;2.03;;
14748;SDS011;7466;53.574;9.976;2024-01-15T13:35:04;2.53;;;2.17;;
14748;SDS011;7466;53.574;9.976;2024-01-15T13:37:36;3.30;;;2.17;;
14748;SDS011;7466;53.574;9.976;2024-01-15T13:40:03;5.40;;;2.73;;
14748;SDS011;7466;53.574;9.976;2024-01-15T13:42:32;2.40;;;2.10;;
14748;SDS011;7466;53.574;9.976;2024-01-15T13:44:59;2.53;;;2.20;;
14748;SDS011;7466;53.574;9.976;2024-01-15T13:47:26;3.03;;;2.47;;
14748;SDS011;7466;53.574;9.976;2024-01-15T13:49:56;4.77;;;2.30;;
14748;SDS011;7466;53.574;9.976;2024-01-15T13:52:24;2.23;;;2.03;;
14748;SDS011;7466;53.574;9.976;2024-01-15T13:54:54;5.33;;;2.40;;
14748;SDS011;7466;53.574;9.976;2024-01-15T13:57:21;2.40;;;2.20;;
14748;SDS011;7466;53.574;9.976;2024-01-15T13:59:49;4.43;;;2.83;;
14748;SDS011;7466;53.574;9.976;2024-01-15T14:02:15;5.57;;;2.23;;
14748;SDS011;7466;53.574;9.976;2024-01-15T14:04:42;2.50;;;2.30;;
14748;SDS011;7466;53.574;9.976;2024-01-15T14:07:15;4.43;;;2.10;;
14748;SDS011;7466;53.574;9.976;2024-01-15T14:09:42;4.93;;;2.47;;
14748;SDS011;7466;53.574;9.976;2024-01-15T14:12:10;2.50;;;2.30;;
14748;SDS011;7466;53.574;9.976;2024-01-15T14:14:42;3.63;;;2.17;;
14748;SDS011;7466;53.574;9.976;2024-01-15T14:17:09;6.60;;;2.10;;
14748;SDS011;7466;53.574;9.976;2024-01-15T14:19:36;5.23;;;2.00;;
14748;SDS011;7466;53.574;9.976;2024-01-15T14:22:03;4.97;;;2.27;;
14748;SDS011;7466;53.574;9.976;2024-01-15T14:24:30;9.40;;;2.10;;
14748;SDS011;7466;53.574;9.976;2024-01-15T14:26:58;4.97;;;1.70;;
14748;SDS011;7466;53.574;9.976;2024-01-15T14:29:31;2.30;;;2.17;;
14748;SDS011;7466;53.574;9.976;2024-01-15T14:31:58;3.43;;;1.93;;
14748;SDS011;7466;53.574;9.976;2024-01-15T14:34:25;3.03;;;2.03;;
14748;SDS011;7466;53.574;9.976;2024-01-15T14:36:52;2.40;;;2.10;;
14748;SDS011;7466;53.574;9.976;2024-01-15T14:39:20;2.97;;;2.40;;
14748;SDS011;7466;53.574;9.976;2024-01-15T14:41:51;2.47;;;2.00;;
14748;SDS011;7466;53.574;9.976;2024-01-15T14:44:23;2.63;;;2.40;;
14748;SDS011;7466;53.574;9.976;2024-01-15T14:46:51;3.57;;;2.53;;
14748;SDS011;7466;53.574;9.976;2024-01-15T14:49:18;3.47;;;2.80;;
14748;SDS011;7466;53.574;9.976;2024-01-15T14:51:46;4.33;;;3.10;;
14748;SDS011;7466;53.574;9.976;2024-01-15T14:54:14;3.50;;;3.20;;
14748;SDS011;7466;53.574;9.976;2024-01-15T14:56:41;5.43;;;3.30;;
14748;SDS011;7466;53.574;9.976;2024-01-15T14:59:09;4.30;;;3.27;;
14748;SDS011;7466;53.574;9.976;2024-01-15T15:01:36;4.10;;;3.67;;
14748;SDS011;7466;53.574;9.976;2024-01-15T15:04:05;7.50;;;4.20;;
14748;SDS011;7466;53.574;9.976;2024-01-15T15:06:33;4.07;;;3.70;;
14748;SDS011;7466;53.574;9.976;2024-01-15T15:09:03;5.83;;;3.90;;
14748;SDS011;7466;53.574;9.976;2024-01-15T15:11:34;5.03;;;3.40;;